sensor_id;sensor_type;location;lat;lon;timestamp;P1;durP1;ratioP1;P2;durP2;ratioP2
8708;SDS011;4391;48.678;9.280;2022-08-21T00:01:33;4.63;;;1.53;;
8708;SDS011;4391;48.678;9.280;2022-08-21T00:04:03;4.95;;;1.80;;
8708;SDS011;4391;48.678;9.280;2022-08-21T00:06:30;4.15;;;1.80;;
8708;SDS011;4391;48.678;9.280;2022-08-21T00:08:58;6.65;;;2.28;;
8708;SDS011;4391;48.678;9.280;2022-08-21T00:11:25;6.28;;;2.30;;
8708;SDS011;4391;48.678;9.280;2022-08-21T00:13:52;4.60;;;2.00;;
8708;SDS011;4391;48.678;9.280;2022-08-21T00:16:19;6.32;;;2.10;;
8708;SDS011;4391;48.678;9.280;2022-08-21T00:18:47;8.30;;;2.45;;
8708;SDS011;4391;48.678;9.280;2022-08-21T00:21:14;10.10;;;2.38;;
8708;SDS011;4391;48.678;9.280;2022-08-21T00:23:41;5.88;;;2.15;;
8708;SDS011;4391;48.678;9.280;2022-08-21T00:26:08;5.13;;;2.17;;
8708;SDS011;4391;48.678;9.280;2022-08-21T00:28:35;7.32;;;2.22;;
8708;SDS011;4391;48.678;9.280;2022-08-21T00:31:02;5.18;;;3.13;;
8708;SDS011;4391;48.678;9.280;2022-08-21T00:33:30;7.18;;;2.28;;
8708;SDS011;4391;48.678;9.280;2022-08-21T00:35:59;6.55;;;2.20;;
8708;SDS011;4391;48.678;9.280;2022-08-21T00:38:26;5.83;;;2.47;;
8708;SDS011;4391;48.678;9.280;2022-08-21T00:40:53;4.50;;;2.40;;
8708;SDS011;4391;48.678;9.280;2022-08-21T00:43:23;4.68;;;1.90;;
8708;SDS011;4391;48.678;9.280;2022-08-21T00:45:51;6.38;;;2.30;;
8708;SDS011;4391;48.678;9.280;2022-08-21T00:48:18;6.40;;;2.40;;
8708;SDS011;4391;48.678;9.280;2022-08-21T00:50:46;5.47;;;2.63;;
8708;SDS011;4391;48.678;9.280;2022-08-21T00:53:19;7.55;;;2.83;;
8708;SDS011;4391;48.678;9.280;2022-08-21T00:55:47;5.65;;;2.35;;
8708;SDS011;4391;48.678;9.280;2022-08-21T00:58:14;6.85;;;2.45;;
8708;SDS011;4391;48.678;9.280;2022-08-21T01:00:44;7.38;;;2.55;;
8708;SDS011;4391;48.678;9.280;2022-08-21T01:03:14;7.67;;;2.50;;
8708;SDS011;4391;48.678;9.280;2022-08-21T01:05:43;4.95;;;2.08;;
8708;SDS011;4391;48.678;9.280;2022-08-21T01:08:10;6.22;;;2.30;;
8708;SDS011;4391;48.678;9.280;2022-08-21T01:10:40;5.30;;;2.13;;
8708;SDS011;4391;48.678;9.280;2022-08-21T01:13:07;6.57;;;2.17;;
8708;SDS011;4391;48.678;9.280;2022-08-21T01:15:39;6.53;;;2.20;;
8708;SDS011;4391;48.678;9.280;2022-08-21T01:18:09;6.18;;;1.95;;
8708;SDS011;4391;48.678;9.280;2022-08-21T01:20:37;6.80;;;2.40;;
8708;SDS011;4391;48.678;9.280;2022-08-21T01:23:09;6.15;;;2.53;;
8708;SDS011;4391;48.678;9.280;2022-08-21T01:25:35;5.82;;;2.30;;
8708;SDS011;4391;48.678;9.280;2022-08-21T01:28:04;10.43;;;2.83;;
8708;SDS011;4391;48.678;9.280;2022-08-21T01:30:36;5.05;;;2.25;;
8708;SDS011;4391;48.678;9.280;2022-08-21T01:33:04;5.13;;;2.42;;
8708;SDS011;4391;48.678;9.280;2022-08-21T01:35:31;7.35;;;2.55;;
8708;SDS011;4391;48.678;9.280;2022-08-21T01:37:58;4.65;;;2.53;;
8708;SDS011;4391;48.678;9.280;2022-08-21T01:40:26;4.20;;;2.33;;
8708;SDS011;4391;48.678;9.280;2022-08-21T01:42:53;5.63;;;2.40;;
8708;SDS011;4391;48.678;9.280;2022-08-21T01:45:20;4.20;;;2.20;;
8708;SDS011;4391;48.678;9.280;2022-08-21T01:47:47;6.32;;;2.00;;
8708;SDS011;4391;48.678;9.280;2022-08-21T01:50:14;6.10;;;2.55;;
8708;SDS011;4391;48.678;9.280;2022-08-21T01:52:43;6.73;;;2.10;;
8708;SDS011;4391;48.678;9.280;2022-08-21T01:55:11;6.13;;;2.50;;
8708;SDS011;4391;48.678;9.280;2022-08-21T01:57:40;4.20;;;2.33;;
8708;SDS011;4391;48.678;9.280;2022-08-21T02:00:08;4.38;;;2.10;;
8708;SDS011;4391;48.678;9.280;2022-08-21T02:02:38;5.25;;;2.50;;
8708;SDS011;4391;48.678;9.280;2022-08-21T02:05:05;8.13;;;2.10;;
8708;SDS011;4391;48.678;9.280;2022-08-21T02:07:35;6.43;;;2.80;;
8708;SDS011;4391;48.678;9.280;2022-08-21T02:10:05;5.22;;;2.40;;
8708;SDS011;4391;48.678;9.280;2022-08-21T02:12:33;5.50;;;2.28;;
8708;SDS011;4391;48.678;9.280;2022-08-21T02:15:01;4.88;;;2.47;;
8708;SDS011;4391;48.678;9.280;2022-08-21T02:17:36;5.77;;;2.53;;
8708;SDS011;4391;48.678;9.280;2022-08-21T02:20:04;8.23;;;2.60;;
8708;SDS011;4391;48.678;9.280;2022-08-21T02:22:31;7.10;;;2.60;;
8708;SDS011;4391;48.678;9.280;2022-08-21T02:24:58;8.27;;;2.47;;
8708;SDS011;4391;48.678;9.280;2022-08-21T02:27:24;6.60;;;3.08;;
8708;SDS011;4391;48.678;9.280;2022-08-21T02:29:51;7.00;;;2.77;;
8708;SDS011;4391;48.678;9.280;2022-08-21T02:32:20;5.78;;;2.90;;
8708;SDS011;4391;48.678;9.280;2022-08-21T02:34:46;6.18;;;3.05;;
8708;SDS011;4391;48.678;9.280;2022-08-21T02:37:13;6.88;;;3.25;;
8708;SDS011;4391;48.678;9.280;2022-08-21T02:39:40;7.97;;;3.20;;
8708;SDS011;4391;48.678;9.280;2022-08-21T02:42:07;6.13;;;3.10;;
8708;SDS011;4391;48.678;9.280;2022-08-21T02:44:34;9.10;;;3.35;;
8708;SDS011;4391;48.678;9.280;2022-08-21T02:47:00;8.23;;;3.00;;
8708;SDS011;4391;48.678;9.280;2022-08-21T02:49:28;5.78;;;3.10;;
8708;SDS011;4391;48.678;9.280;2022-08-21T02:51:55;6.35;;;3.05;;
8708;SDS011;4391;48.678;9.280;2022-08-21T02:54:22;8.13;;;3.10;;
8708;SDS011;4391;48.678;9.280;2022-08-21T02:56:49;7.25;;;3.08;;
8708;SDS011;4391;48.678;9.280;2022-08-21T02:59:16;7.22;;;3.60;;
8708;SDS011;4391;48.678;9.280;2022-08-21T03:01:42;5.60;;;3.10;;
8708;SDS011;4391;48.678;9.280;2022-08-21T03:04:09;6.65;;;3.30;;
8708;SDS011;4391;48.678;9.280;2022-08-21T03:06:37;9.20;;;3.60;;
8708;SDS011;4391;48.678;9.280;2022-08-21T03:09:04;8.60;;;3.45;;
8708;SDS011;4391;48.678;9.280;2022-08-21T03:11:31;7.32;;;3.40;;
8708;SDS011;4391;48.678;9.280;2022-08-21T03:13:57;6.15;;;3.10;;
8708;SDS011;4391;48.678;9.280;2022-08-21T03:16:24;8.23;;;3.50;;
8708;SDS011;4391;48.678;9.280;2022-08-21T03:18:51;7.03;;;3.10;;
8708;SDS011;4391;48.678;9.280;2022-08-21T03:21:18;7.32;;;3.53;;
8708;SDS011;4391;48.678;9.280;2022-08-21T03:23:46;8.48;;;3.63;;
8708;SDS011;4391;48.678;9.280;2022-08-21T03:26:13;6.95;;;3.42;;
8708;SDS011;4391;48.678;9.280;2022-08-21T03:28:39;6.70;;;3.28;;
8708;SDS011;4391;48.678;9.280;2022-08-21T03:31:06;11.30;;;3.50;;
8708;SDS011;4391;48.678;9.280;2022-08-21T03:33:33;7.80;;;3.25;;
8708;SDS011;4391;48.678;9.280;2022-08-21T03:36:03;7.35;;;3.25;;
8708;SDS011;4391;48.678;9.280;2022-08-21T03:38:32;7.25;;;3.50;;
8708;SDS011;4391;48.678;9.280;2022-08-21T03:41:02;8.48;;;3.25;;
8708;SDS011;4391;48.678;9.280;2022-08-21T03:43:30;7.93;;;3.33;;
8708;SDS011;4391;48.678;9.280;2022-08-21T03:45:57;6.93;;;3.35;;
8708;SDS011;4391;48.678;9.280;2022-08-21T03:48:24;9.20;;;3.30;;
8708;SDS011;4391;48.678;9.280;2022-08-21T03:50:51;8.35;;;3.60;;
8708;SDS011;4391;48.678;9.280;2022-08-21T03:53:19;6.03;;;3.08;;
8708;SDS011;4391;48.678;9.280;2022-08-21T03:55:47;7.87;;;3.10;;
8708;SDS011;4391;48.678;9.280;2022-08-21T03:58:16;6.07;;;3.00;;
8708;SDS011;4391;48.678;9.280;2022-08-21T04:00:45;7.25;;;3.35;;
8708;SDS011;4391;48.678;9.280;2022-08-21T04:03:13;6.90;;;3.08;;
8708;SDS011;4391;48.678;9.280;2022-08-21T04:05:40;7.05;;;3.47;;
8708;SDS011;4391;48.678;9.280;2022-08-21T04:08:07;7.20;;;3.20;;
8708;SDS011;4391;48.678;9.280;2022-08-21T04:10:35;7.20;;;3.38;;
8708;SDS011;4391;48.678;9.280;2022-08-21T04:13:04;11.55;;;3.35;;
8708;SDS011;4391;48.678;9.280;2022-08-21T04:15:33;7.28;;;3.25;;
8708;SDS011;4391;48.678;9.280;2022-08-21T04:18:00;6.63;;;3.58;;
8708;SDS011;4391;48.678;9.280;2022-08-21T04:20:27;7.90;;;3.00;;
8708;SDS011;4391;48.678;9.280;2022-08-21T04:22:54;7.80;;;3.33;;
8708;SDS011;4391;48.678;9.280;2022-08-21T04:25:21;8.60;;;3.15;;
8708;SDS011;4391;48.678;9.280;2022-08-21T04:27:50;5.60;;;3.28;;
8708;SDS011;4391;48.678;9.280;2022-08-21T04:30:17;5.90;;;3.33;;
8708;SDS011;4391;48.678;9.280;2022-08-21T04:32:46;5.20;;;3.10;;
8708;SDS011;4391;48.678;9.280;2022-08-21T04:35:16;5.50;;;3.10;;
8708;SDS011;4391;48.678;9.280;2022-08-21T04:37:45;6.82;;;3.17;;
8708;SDS011;4391;48.678;9.280;2022-08-21T04:40:12;5.65;;;3.15;;
8708;SDS011;4391;48.678;9.280;2022-08-21T04:42:42;5.25;;;2.95;;
8708;SDS011;4391;48.678;9.280;2022-08-21T04:45:15;9.97;;;3.20;;
8708;SDS011;4391;48.678;9.280;2022-08-21T04:47:46;5.50;;;3.13;;
8708;SDS011;4391;48.678;9.280;2022-08-21T04:50:14;9.25;;;3.35;;
8708;SDS011;4391;48.678;9.280;2022-08-21T04:52:40;10.35;;;3.17;;
8708;SDS011;4391;48.678;9.280;2022-08-21T04:55:07;7.05;;;4.05;;
8708;SDS011;4391;48.678;9.280;2022-08-21T04:57:34;7.47;;;3.47;;
8708;SDS011;4391;48.678;9.280;2022-08-21T05:00:02;6.75;;;3.20;;
8708;SDS011;4391;48.678;9.280;2022-08-21T05:02:31;7.03;;;3.33;;
8708;SDS011;4391;48.678;9.280;2022-08-21T05:05:00;6.13;;;3.25;;
8708;SDS011;4391;48.678;9.280;2022-08-21T05:07:27;7.35;;;3.25;;
8708;SDS011;4391;48.678;9.280;2022-08-21T05:09:55;6.33;;;3.50;;
8708;SDS011;4391;48.678;9.280;2022-08-21T05:12:22;7.30;;;3.53;;
8708;SDS011;4391;48.678;9.280;2022-08-21T05:14:49;9.02;;;3.72;;
8708;SDS011;4391;48.678;9.280;2022-08-21T05:17:16;7.45;;;3.70;;
8708;SDS011;4391;48.678;9.280;2022-08-21T05:19:43;6.50;;;3.60;;
8708;SDS011;4391;48.678;9.280;2022-08-21T05:22:11;12.87;;;4.57;;
8708;SDS011;4391;48.678;9.280;2022-08-21T05:24:45;9.18;;;3.50;;
8708;SDS011;4391;48.678;9.280;2022-08-21T05:27:12;6.93;;;4.10;;
8708;SDS011;4391;48.678;9.280;2022-08-21T05:29:38;9.38;;;3.88;;
8708;SDS011;4391;48.678;9.280;2022-08-21T05:32:07;6.90;;;3.75;;
8708;SDS011;4391;48.678;9.280;2022-08-21T05:34:35;8.43;;;4.13;;
8708;SDS011;4391;48.678;9.280;2022-08-21T05:37:02;7.30;;;3.60;;
8708;SDS011;4391;48.678;9.280;2022-08-21T05:39:31;7.78;;;4.07;;
8708;SDS011;4391;48.678;9.280;2022-08-21T05:41:58;6.63;;;3.92;;
8708;SDS011;4391;48.678;9.280;2022-08-21T05:44:25;7.05;;;4.03;;
8708;SDS011;4391;48.678;9.280;2022-08-21T05:46:51;7.63;;;3.67;;
8708;SDS011;4391;48.678;9.280;2022-08-21T05:49:18;9.50;;;3.80;;
8708;SDS011;4391;48.678;9.280;2022-08-21T05:51:45;8.65;;;4.43;;
8708;SDS011;4391;48.678;9.280;2022-08-21T05:54:12;8.18;;;3.55;;
8708;SDS011;4391;48.678;9.280;2022-08-21T05:56:40;8.82;;;3.88;;
8708;SDS011;4391;48.678;9.280;2022-08-21T05:59:09;9.13;;;4.10;;
8708;SDS011;4391;48.678;9.280;2022-08-21T06:01:38;9.05;;;4.25;;
8708;SDS011;4391;48.678;9.280;2022-08-21T06:04:05;8.45;;;4.20;;
8708;SDS011;4391;48.678;9.280;2022-08-21T06:06:32;5.97;;;3.70;;
8708;SDS011;4391;48.678;9.280;2022-08-21T06:09:00;8.30;;;4.18;;
8708;SDS011;4391;48.678;9.280;2022-08-21T06:11:26;8.90;;;3.47;;
8708;SDS011;4391;48.678;9.280;2022-08-21T06:13:55;6.68;;;3.85;;
8708;SDS011;4391;48.678;9.280;2022-08-21T06:16:22;11.05;;;3.47;;
8708;SDS011;4391;48.678;9.280;2022-08-21T06:18:49;8.73;;;3.70;;
8708;SDS011;4391;48.678;9.280;2022-08-21T06:21:16;8.65;;;3.35;;
8708;SDS011;4391;48.678;9.280;2022-08-21T06:23:43;8.27;;;3.30;;
8708;SDS011;4391;48.678;9.280;2022-08-21T06:26:10;9.32;;;3.20;;
8708;SDS011;4391;48.678;9.280;2022-08-21T06:28:39;6.97;;;3.65;;
8708;SDS011;4391;48.678;9.280;2022-08-21T06:31:12;10.23;;;3.42;;
8708;SDS011;4391;48.678;9.280;2022-08-21T06:33:42;7.68;;;3.10;;
8708;SDS011;4391;48.678;9.280;2022-08-21T06:36:09;6.00;;;2.90;;
8708;SDS011;4391;48.678;9.280;2022-08-21T06:38:36;11.15;;;3.08;;
8708;SDS011;4391;48.678;9.280;2022-08-21T06:41:04;6.40;;;3.30;;
8708;SDS011;4391;48.678;9.280;2022-08-21T06:43:32;6.00;;;3.00;;
8708;SDS011;4391;48.678;9.280;2022-08-21T06:45:59;7.00;;;3.10;;
8708;SDS011;4391;48.678;9.280;2022-08-21T06:48:27;6.80;;;3.17;;
8708;SDS011;4391;48.678;9.280;2022-08-21T06:50:57;6.75;;;2.92;;
8708;SDS011;4391;48.678;9.280;2022-08-21T06:53:24;7.78;;;3.10;;
8708;SDS011;4391;48.678;9.280;2022-08-21T06:55:51;5.25;;;2.45;;
8708;SDS011;4391;48.678;9.280;2022-08-21T06:58:18;5.45;;;2.40;;
8708;SDS011;4391;48.678;9.280;2022-08-21T07:00:46;5.27;;;2.30;;
8708;SDS011;4391;48.678;9.280;2022-08-21T07:03:17;6.50;;;2.42;;
8708;SDS011;4391;48.678;9.280;2022-08-21T07:05:47;4.95;;;2.28;;
8708;SDS011;4391;48.678;9.280;2022-08-21T07:08:14;9.05;;;2.40;;
8708;SDS011;4391;48.678;9.280;2022-08-21T07:10:41;7.15;;;2.78;;
8708;SDS011;4391;48.678;9.280;2022-08-21T07:13:08;7.27;;;2.60;;
8708;SDS011;4391;48.678;9.280;2022-08-21T07:15:35;4.30;;;2.20;;
8708;SDS011;4391;48.678;9.280;2022-08-21T07:18:02;4.90;;;2.50;;
8708;SDS011;4391;48.678;9.280;2022-08-21T07:20:29;5.38;;;2.60;;
8708;SDS011;4391;48.678;9.280;2022-08-21T07:22:59;4.65;;;2.30;;
8708;SDS011;4391;48.678;9.280;2022-08-21T07:25:29;3.93;;;1.70;;
8708;SDS011;4391;48.678;9.280;2022-08-21T07:27:56;6.00;;;2.38;;
8708;SDS011;4391;48.678;9.280;2022-08-21T07:30:23;4.78;;;2.30;;
8708;SDS011;4391;48.678;9.280;2022-08-21T07:32:53;7.95;;;1.98;;
8708;SDS011;4391;48.678;9.280;2022-08-21T07:35:21;6.78;;;2.25;;
8708;SDS011;4391;48.678;9.280;2022-08-21T07:37:52;5.27;;;2.30;;
8708;SDS011;4391;48.678;9.280;2022-08-21T07:40:21;4.15;;;2.13;;
8708;SDS011;4391;48.678;9.280;2022-08-21T07:42:48;4.82;;;2.20;;
8708;SDS011;4391;48.678;9.280;2022-08-21T07:45:16;8.10;;;2.30;;
8708;SDS011;4391;48.678;9.280;2022-08-21T07:47:44;7.10;;;2.30;;
8708;SDS011;4391;48.678;9.280;2022-08-21T07:50:11;6.70;;;2.30;;
8708;SDS011;4391;48.678;9.280;2022-08-21T07:52:40;5.72;;;2.40;;
8708;SDS011;4391;48.678;9.280;2022-08-21T07:55:08;5.43;;;2.30;;
8708;SDS011;4391;48.678;9.280;2022-08-21T07:57:40;8.43;;;2.80;;
8708;SDS011;4391;48.678;9.280;2022-08-21T08:00:09;8.13;;;3.15;;
8708;SDS011;4391;48.678;9.280;2022-08-21T08:02:39;7.03;;;2.63;;
8708;SDS011;4391;48.678;9.280;2022-08-21T08:05:09;5.93;;;2.40;;
8708;SDS011;4391;48.678;9.280;2022-08-21T08:07:37;9.15;;;2.42;;
8708;SDS011;4391;48.678;9.280;2022-08-21T08:10:05;8.40;;;2.58;;
8708;SDS011;4391;48.678;9.280;2022-08-21T08:12:33;6.85;;;2.40;;
8708;SDS011;4391;48.678;9.280;2022-08-21T08:15:02;7.30;;;2.57;;
8708;SDS011;4391;48.678;9.280;2022-08-21T08:17:33;5.35;;;2.10;;
8708;SDS011;4391;48.678;9.280;2022-08-21T08:20:00;7.00;;;2.55;;
8708;SDS011;4391;48.678;9.280;2022-08-21T08:22:27;7.07;;;2.28;;
8708;SDS011;4391;48.678;9.280;2022-08-21T08:24:54;6.25;;;2.30;;
8708;SDS011;4391;48.678;9.280;2022-08-21T08:27:24;5.50;;;2.13;;
8708;SDS011;4391;48.678;9.280;2022-08-21T08:29:51;6.07;;;2.78;;
8708;SDS011;4391;48.678;9.280;2022-08-21T08:32:20;6.65;;;2.60;;
8708;SDS011;4391;48.678;9.280;2022-08-21T08:34:47;5.28;;;2.47;;
8708;SDS011;4391;48.678;9.280;2022-08-21T08:37:17;5.95;;;2.17;;
8708;SDS011;4391;48.678;9.280;2022-08-21T08:39:45;7.63;;;2.57;;
8708;SDS011;4391;48.678;9.280;2022-08-21T08:42:13;10.07;;;2.75;;
8708;SDS011;4391;48.678;9.280;2022-08-21T08:44:42;6.75;;;2.92;;
8708;SDS011;4391;48.678;9.280;2022-08-21T08:47:11;7.75;;;2.53;;
8708;SDS011;4391;48.678;9.280;2022-08-21T08:49:43;7.63;;;2.25;;
8708;SDS011;4391;48.678;9.280;2022-08-21T08:52:16;5.93;;;2.63;;
8708;SDS011;4391;48.678;9.280;2022-08-21T08:54:47;7.07;;;2.88;;
8708;SDS011;4391;48.678;9.280;2022-08-21T08:57:20;6.18;;;2.38;;
8708;SDS011;4391;48.678;9.280;2022-08-21T08:59:49;5.90;;;2.33;;
8708;SDS011;4391;48.678;9.280;2022-08-21T09:02:18;6.13;;;2.47;;
8708;SDS011;4391;48.678;9.280;2022-08-21T09:04:47;4.53;;;2.00;;
8708;SDS011;4391;48.678;9.280;2022-08-21T09:07:18;5.15;;;2.45;;
8708;SDS011;4391;48.678;9.280;2022-08-21T09:09:55;5.53;;;2.42;;
8708;SDS011;4391;48.678;9.280;2022-08-21T09:12:33;6.00;;;2.35;;
8708;SDS011;4391;48.678;9.280;2022-08-21T09:15:12;6.38;;;2.50;;
8708;SDS011;4391;48.678;9.280;2022-08-21T09:17:52;7.67;;;2.47;;
8708;SDS011;4391;48.678;9.280;2022-08-21T09:20:47;7.05;;;2.38;;
8708;SDS011;4391;48.678;9.280;2022-08-21T09:23:24;6.90;;;2.50;;
8708;SDS011;4391;48.678;9.280;2022-08-21T09:26:02;7.43;;;2.45;;
8708;SDS011;4391;48.678;9.280;2022-08-21T09:28:33;7.45;;;1.90;;
8708;SDS011;4391;48.678;9.280;2022-08-21T09:31:03;6.47;;;2.30;;
8708;SDS011;4391;48.678;9.280;2022-08-21T09:33:33;6.60;;;2.13;;
8708;SDS011;4391;48.678;9.280;2022-08-21T09:36:01;8.88;;;2.67;;
8708;SDS011;4391;48.678;9.280;2022-08-21T09:38:30;6.32;;;1.90;;
8708;SDS011;4391;48.678;9.280;2022-08-21T09:41:01;4.95;;;2.17;;
8708;SDS011;4391;48.678;9.280;2022-08-21T09:43:30;13.10;;;2.50;;
8708;SDS011;4391;48.678;9.280;2022-08-21T09:46:02;6.27;;;1.90;;
8708;SDS011;4391;48.678;9.280;2022-08-21T09:48:42;7.50;;;2.40;;
8708;SDS011;4391;48.678;9.280;2022-08-21T09:51:13;6.13;;;2.10;;
8708;SDS011;4391;48.678;9.280;2022-08-21T09:53:42;7.65;;;1.98;;
8708;SDS011;4391;48.678;9.280;2022-08-21T09:56:25;6.85;;;2.40;;
8708;SDS011;4391;48.678;9.280;2022-08-21T09:59:16;6.30;;;2.00;;
8708;SDS011;4391;48.678;9.280;2022-08-21T10:01:46;6.83;;;2.03;;
8708;SDS011;4391;48.678;9.280;2022-08-21T10:04:15;5.78;;;2.10;;
8708;SDS011;4391;48.678;9.280;2022-08-21T10:06:48;6.70;;;2.25;;
8708;SDS011;4391;48.678;9.280;2022-08-21T10:09:16;6.90;;;2.35;;
8708;SDS011;4391;48.678;9.280;2022-08-21T10:11:47;6.63;;;2.22;;
8708;SDS011;4391;48.678;9.280;2022-08-21T10:14:33;8.27;;;1.90;;
8708;SDS011;4391;48.678;9.280;2022-08-21T10:17:07;8.53;;;2.20;;
8708;SDS011;4391;48.678;9.280;2022-08-21T10:19:42;6.13;;;2.07;;
8708;SDS011;4391;48.678;9.280;2022-08-21T10:22:22;7.35;;;2.13;;
8708;SDS011;4391;48.678;9.280;2022-08-21T10:25:02;5.60;;;1.90;;
8708;SDS011;4391;48.678;9.280;2022-08-21T10:27:37;5.82;;;2.00;;
8708;SDS011;4391;48.678;9.280;2022-08-21T10:30:14;6.30;;;2.10;;
8708;SDS011;4391;48.678;9.280;2022-08-21T10:32:52;6.72;;;1.73;;
8708;SDS011;4391;48.678;9.280;2022-08-21T10:35:29;8.88;;;2.10;;
8708;SDS011;4391;48.678;9.280;2022-08-21T10:38:05;7.57;;;2.10;;
8708;SDS011;4391;48.678;9.280;2022-08-21T10:40:51;7.50;;;1.80;;
8708;SDS011;4391;48.678;9.280;2022-08-21T10:43:30;11.50;;;1.80;;
8708;SDS011;4391;48.678;9.280;2022-08-21T10:46:07;6.13;;;1.50;;
8708;SDS011;4391;48.678;9.280;2022-08-21T10:48:43;5.72;;;1.55;;
8708;SDS011;4391;48.678;9.280;2022-08-21T10:51:15;6.38;;;1.60;;
8708;SDS011;4391;48.678;9.280;2022-08-21T10:53:54;8.18;;;1.60;;
8708;SDS011;4391;48.678;9.280;2022-08-21T10:56:26;4.50;;;1.50;;
8708;SDS011;4391;48.678;9.280;2022-08-21T10:59:00;5.00;;;1.70;;
8708;SDS011;4391;48.678;9.280;2022-08-21T11:01:34;4.72;;;1.67;;
8708;SDS011;4391;48.678;9.280;2022-08-21T11:04:10;4.30;;;1.50;;
8708;SDS011;4391;48.678;9.280;2022-08-21T11:06:44;5.80;;;1.70;;
8708;SDS011;4391;48.678;9.280;2022-08-21T11:09:17;5.67;;;1.53;;
8708;SDS011;4391;48.678;9.280;2022-08-21T11:11:46;6.15;;;1.85;;
8708;SDS011;4391;48.678;9.280;2022-08-21T11:14:18;6.97;;;1.83;;
8708;SDS011;4391;48.678;9.280;2022-08-21T11:16:51;9.52;;;1.83;;
8708;SDS011;4391;48.678;9.280;2022-08-21T11:19:25;5.95;;;2.03;;
8708;SDS011;4391;48.678;9.280;2022-08-21T11:21:58;6.65;;;1.90;;
8708;SDS011;4391;48.678;9.280;2022-08-21T11:24:31;4.65;;;1.77;;
8708;SDS011;4391;48.678;9.280;2022-08-21T11:27:05;6.77;;;2.00;;
8708;SDS011;4391;48.678;9.280;2022-08-21T11:29:40;5.97;;;1.77;;
8708;SDS011;4391;48.678;9.280;2022-08-21T11:32:17;4.88;;;1.65;;
8708;SDS011;4391;48.678;9.280;2022-08-21T11:34:57;7.88;;;1.80;;
8708;SDS011;4391;48.678;9.280;2022-08-21T11:37:35;6.03;;;1.60;;
8708;SDS011;4391;48.678;9.280;2022-08-21T11:40:17;6.35;;;1.48;;
8708;SDS011;4391;48.678;9.280;2022-08-21T11:42:55;7.38;;;2.00;;
8708;SDS011;4391;48.678;9.280;2022-08-21T11:45:36;6.65;;;1.63;;
8708;SDS011;4391;48.678;9.280;2022-08-21T11:48:15;6.13;;;2.00;;
8708;SDS011;4391;48.678;9.280;2022-08-21T11:51:02;8.80;;;2.03;;
8708;SDS011;4391;48.678;9.280;2022-08-21T11:53:35;5.72;;;1.77;;
8708;SDS011;4391;48.678;9.280;2022-08-21T11:56:17;5.80;;;1.80;;
8708;SDS011;4391;48.678;9.280;2022-08-21T11:58:51;3.88;;;1.40;;
8708;SDS011;4391;48.678;9.280;2022-08-21T12:01:21;5.25;;;1.98;;
8708;SDS011;4391;48.678;9.280;2022-08-21T12:03:53;5.32;;;1.77;;
8708;SDS011;4391;48.678;9.280;2022-08-21T12:06:33;6.72;;;1.80;;
8708;SDS011;4391;48.678;9.280;2022-08-21T12:09:02;4.00;;;1.53;;
8708;SDS011;4391;48.678;9.280;2022-08-21T12:11:31;8.97;;;1.77;;
8708;SDS011;4391;48.678;9.280;2022-08-21T12:14:12;5.60;;;1.67;;
8708;SDS011;4391;48.678;9.280;2022-08-21T12:16:42;6.18;;;1.60;;
8708;SDS011;4391;48.678;9.280;2022-08-21T12:19:11;4.75;;;1.52;;
8708;SDS011;4391;48.678;9.280;2022-08-21T12:21:47;7.32;;;1.65;;
8708;SDS011;4391;48.678;9.280;2022-08-21T12:24:18;5.38;;;1.70;;
8708;SDS011;4391;48.678;9.280;2022-08-21T12:26:51;5.25;;;1.48;;
8708;SDS011;4391;48.678;9.280;2022-08-21T12:29:23;6.07;;;1.57;;
8708;SDS011;4391;48.678;9.280;2022-08-21T12:31:54;6.63;;;1.33;;
8708;SDS011;4391;48.678;9.280;2022-08-21T12:34:28;6.80;;;1.90;;
8708;SDS011;4391;48.678;9.280;2022-08-21T12:37:00;4.68;;;1.50;;
8708;SDS011;4391;48.678;9.280;2022-08-21T12:39:31;10.77;;;1.90;;
8708;SDS011;4391;48.678;9.280;2022-08-21T12:42:03;5.05;;;1.70;;
8708;SDS011;4391;48.678;9.280;2022-08-21T12:44:41;5.85;;;2.17;;
8708;SDS011;4391;48.678;9.280;2022-08-21T12:47:16;5.18;;;1.50;;
8708;SDS011;4391;48.678;9.280;2022-08-21T12:49:51;5.65;;;1.50;;
8708;SDS011;4391;48.678;9.280;2022-08-21T12:52:22;5.87;;;1.70;;
8708;SDS011;4391;48.678;9.280;2022-08-21T12:54:53;4.60;;;1.52;;
8708;SDS011;4391;48.678;9.280;2022-08-21T12:57:22;4.32;;;1.50;;
8708;SDS011;4391;48.678;9.280;2022-08-21T12:59:54;4.55;;;1.50;;
8708;SDS011;4391;48.678;9.280;2022-08-21T13:02:23;6.15;;;1.58;;
8708;SDS011;4391;48.678;9.280;2022-08-21T13:04:52;4.35;;;1.52;;
8708;SDS011;4391;48.678;9.280;2022-08-21T13:07:24;4.13;;;1.40;;
8708;SDS011;4391;48.678;9.280;2022-08-21T13:09:54;5.40;;;1.50;;
8708;SDS011;4391;48.678;9.280;2022-08-21T13:12:25;5.50;;;1.27;;
8708;SDS011;4391;48.678;9.280;2022-08-21T13:14:55;4.70;;;1.70;;
8708;SDS011;4391;48.678;9.280;2022-08-21T13:17:24;6.88;;;1.73;;
8708;SDS011;4391;48.678;9.280;2022-08-21T13:19:53;5.13;;;1.50;;
8708;SDS011;4391;48.678;9.280;2022-08-21T13:22:21;4.63;;;1.60;;
8708;SDS011;4391;48.678;9.280;2022-08-21T13:24:49;5.60;;;1.50;;
8708;SDS011;4391;48.678;9.280;2022-08-21T13:27:20;4.10;;;1.50;;
8708;SDS011;4391;48.678;9.280;2022-08-21T13:30:02;5.22;;;1.83;;
8708;SDS011;4391;48.678;9.280;2022-08-21T13:32:32;4.25;;;1.30;;
8708;SDS011;4391;48.678;9.280;2022-08-21T13:35:07;3.77;;;1.37;;
8708;SDS011;4391;48.678;9.280;2022-08-21T13:37:35;5.03;;;1.60;;
8708;SDS011;4391;48.678;9.280;2022-08-21T13:40:09;4.13;;;1.40;;
8708;SDS011;4391;48.678;9.280;2022-08-21T13:42:39;5.18;;;1.40;;
8708;SDS011;4391;48.678;9.280;2022-08-21T13:45:12;3.47;;;1.42;;
8708;SDS011;4391;48.678;9.280;2022-08-21T13:47:41;5.28;;;1.45;;
8708;SDS011;4391;48.678;9.280;2022-08-21T13:50:09;5.28;;;1.60;;
8708;SDS011;4391;48.678;9.280;2022-08-21T13:52:46;4.43;;;1.70;;
8708;SDS011;4391;48.678;9.280;2022-08-21T13:55:23;3.80;;;1.35;;
8708;SDS011;4391;48.678;9.280;2022-08-21T13:57:58;4.82;;;1.55;;
8708;SDS011;4391;48.678;9.280;2022-08-21T14:00:29;5.83;;;1.53;;
8708;SDS011;4391;48.678;9.280;2022-08-21T14:03:00;4.13;;;1.60;;
8708;SDS011;4391;48.678;9.280;2022-08-21T14:05:31;3.92;;;1.52;;
8708;SDS011;4391;48.678;9.280;2022-08-21T14:08:01;4.28;;;1.50;;
8708;SDS011;4391;48.678;9.280;2022-08-21T14:10:31;3.65;;;1.42;;
8708;SDS011;4391;48.678;9.280;2022-08-21T14:13:03;4.55;;;1.50;;
8708;SDS011;4391;48.678;9.280;2022-08-21T14:15:34;6.93;;;1.52;;
8708;SDS011;4391;48.678;9.280;2022-08-21T14:18:08;4.55;;;1.60;;
8708;SDS011;4391;48.678;9.280;2022-08-21T14:20:39;3.65;;;1.40;;
8708;SDS011;4391;48.678;9.280;2022-08-21T14:23:06;5.80;;;1.90;;
8708;SDS011;4391;48.678;9.280;2022-08-21T14:25:37;4.83;;;1.30;;
8708;SDS011;4391;48.678;9.280;2022-08-21T14:28:09;4.27;;;1.70;;
8708;SDS011;4391;48.678;9.280;2022-08-21T14:30:51;5.65;;;1.67;;
8708;SDS011;4391;48.678;9.280;2022-08-21T14:33:21;3.65;;;1.45;;
8708;SDS011;4391;48.678;9.280;2022-08-21T14:35:51;6.90;;;1.70;;
8708;SDS011;4391;48.678;9.280;2022-08-21T14:38:19;4.38;;;1.73;;
8708;SDS011;4391;48.678;9.280;2022-08-21T14:40:47;4.45;;;1.42;;
8708;SDS011;4391;48.678;9.280;2022-08-21T14:43:16;6.05;;;1.60;;
8708;SDS011;4391;48.678;9.280;2022-08-21T14:45:43;3.03;;;1.20;;
8708;SDS011;4391;48.678;9.280;2022-08-21T14:48:11;6.05;;;1.38;;
8708;SDS011;4391;48.678;9.280;2022-08-21T14:50:38;4.70;;;1.60;;
8708;SDS011;4391;48.678;9.280;2022-08-21T14:53:06;5.53;;;1.40;;
8708;SDS011;4391;48.678;9.280;2022-08-21T14:55:33;5.28;;;1.45;;
8708;SDS011;4391;48.678;9.280;2022-08-21T14:58:21;4.32;;;1.58;;
8708;SDS011;4391;48.678;9.280;2022-08-21T15:00:49;4.50;;;1.52;;
8708;SDS011;4391;48.678;9.280;2022-08-21T15:03:18;4.25;;;1.63;;
8708;SDS011;4391;48.678;9.280;2022-08-21T15:05:46;5.40;;;1.73;;
8708;SDS011;4391;48.678;9.280;2022-08-21T15:08:13;4.07;;;1.48;;
8708;SDS011;4391;48.678;9.280;2022-08-21T15:10:40;4.50;;;1.67;;
8708;SDS011;4391;48.678;9.280;2022-08-21T15:13:07;4.75;;;1.63;;
8708;SDS011;4391;48.678;9.280;2022-08-21T15:15:36;4.07;;;1.33;;
8708;SDS011;4391;48.678;9.280;2022-08-21T15:18:07;4.00;;;1.50;;
8708;SDS011;4391;48.678;9.280;2022-08-21T15:20:36;5.13;;;1.38;;
8708;SDS011;4391;48.678;9.280;2022-08-21T15:23:04;3.33;;;1.27;;
8708;SDS011;4391;48.678;9.280;2022-08-21T15:25:31;5.93;;;1.55;;
8708;SDS011;4391;48.678;9.280;2022-08-21T15:27:59;5.22;;;1.50;;
8708;SDS011;4391;48.678;9.280;2022-08-21T15:30:26;4.43;;;1.52;;
8708;SDS011;4391;48.678;9.280;2022-08-21T15:32:53;8.40;;;1.83;;